sensor_id;sensor_type;location;lat;lon;timestamp;temperature;humidity
65074;DHT22;52218;51.224;-2.328;2023-02-19T00:00:27;8.50;99.90
65074;DHT22;52218;51.224;-2.328;2023-02-19T00:04:18;8.50;99.90
65074;DHT22;52218;51.224;-2.328;2023-02-19T00:08:00;8.50;99.90
65074;DHT22;52218;51.224;-2.328;2023-02-19T00:11:43;8.50;99.90
65074;DHT22;52218;51.224;-2.328;2023-02-19T00:15:25;8.40;99.90
65074;DHT22;52218;51.224;-2.328;2023-02-19T00:19:11;8.40;99.90
65074;DHT22;52218;51.224;-2.328;2023-02-19T00:22:53;8.40;99.90
65074;DHT22;52218;51.224;-2.328;2023-02-19T00:26:38;8.40;99.90
65074;DHT22;52218;51.224;-2.328;2023-02-19T00:30:20;8.30;99.90
65074;DHT22;52218;51.224;-2.328;2023-02-19T00:34:04;8.30;99.90
65074;DHT22;52218;51.224;-2.328;2023-02-19T00:37:46;8.20;99.90
65074;DHT22;52218;51.224;-2.328;2023-02-19T00:41:28;8.20;99.90
65074;DHT22;52218;51.224;-2.328;2023-02-19T00:45:11;8.10;99.90
65074;DHT22;52218;51.224;-2.328;2023-02-19T00:48:53;8.10;99.90
65074;DHT22;52218;51.224;-2.328;2023-02-19T00:52:36;8.10;99.90
65074;DHT22;52218;51.224;-2.328;2023-02-19T00:56:18;8.20;99.90
65074;DHT22;52218;51.224;-2.328;2023-02-19T01:00:00;8.20;99.90
65074;DHT22;52218;51.224;-2.328;2023-02-19T01:03:42;8.20;99.90
65074;DHT22;52218;51.224;-2.328;2023-02-19T01:07:25;8.30;99.90
65074;DHT22;52218;51.224;-2.328;2023-02-19T01:11:08;8.30;99.90
65074;DHT22;52218;51.224;-2.328;2023-02-19T01:14:50;8.30;99.90
65074;DHT22;52218;51.224;-2.328;2023-02-19T01:18:34;8.30;99.90
65074;DHT22;52218;51.224;-2.328;2023-02-19T01:22:16;8.30;99.90
65074;DHT22;52218;51.224;-2.328;2023-02-19T01:25:58;8.40;99.90
65074;DHT22;52218;51.224;-2.328;2023-02-19T01:29:41;8.60;99.90
65074;DHT22;52218;51.224;-2.328;2023-02-19T01:33:24;8.60;99.90
65074;DHT22;52218;51.224;-2.328;2023-02-19T01:37:05;8.70;99.90
65074;DHT22;52218;51.224;-2.328;2023-02-19T01:40:57;8.80;99.90
65074;DHT22;52218;51.224;-2.328;2023-02-19T01:48:34;8.90;99.90
65074;DHT22;52218;51.224;-2.328;2023-02-19T01:52:31;8.90;99.90
65074;DHT22;52218;51.224;-2.328;2023-02-19T01:56:40;8.90;99.90
65074;DHT22;52218;51.224;-2.328;2023-02-19T02:00:23;8.90;99.90
65074;DHT22;52218;51.224;-2.328;2023-02-19T02:04:07;8.90;99.90
65074;DHT22;52218;51.224;-2.328;2023-02-19T02:07:51;8.90;99.90
65074;DHT22;52218;51.224;-2.328;2023-02-19T02:11:52;8.80;99.90
65074;DHT22;52218;51.224;-2.328;2023-02-19T02:15:53;8.80;99.90
65074;DHT22;52218;51.224;-2.328;2023-02-19T02:28:13;8.80;99.90
65074;DHT22;52218;51.224;-2.328;2023-02-19T02:32:08;8.80;99.90
65074;DHT22;52218;51.224;-2.328;2023-02-19T02:40:01;8.80;99.90
65074;DHT22;52218;51.224;-2.328;2023-02-19T02:43:44;8.70;99.90
65074;DHT22;52218;51.224;-2.328;2023-02-19T02:47:26;8.60;99.90
65074;DHT22;52218;51.224;-2.328;2023-02-19T02:55:08;8.40;99.90
65074;DHT22;52218;51.224;-2.328;2023-02-19T02:58:52;8.30;99.90
65074;DHT22;52218;51.224;-2.328;2023-02-19T03:02:35;8.30;99.90
65074;DHT22;52218;51.224;-2.328;2023-02-19T03:06:21;8.20;99.90
65074;DHT22;52218;51.224;-2.328;2023-02-19T03:10:08;8.10;99.90
65074;DHT22;52218;51.224;-2.328;2023-02-19T03:18:02;8.00;99.90
65074;DHT22;52218;51.224;-2.328;2023-02-19T03:22:13;8.00;99.90
65074;DHT22;52218;51.224;-2.328;2023-02-19T03:25:56;7.90;99.90
65074;DHT22;52218;51.224;-2.328;2023-02-19T03:29:45;7.90;99.90
65074;DHT22;52218;51.224;-2.328;2023-02-19T03:33:28;7.80;99.90
65074;DHT22;52218;51.224;-2.328;2023-02-19T03:37:30;7.80;99.90
65074;DHT22;52218;51.224;-2.328;2023-02-19T03:41:25;7.70;99.90
65074;DHT22;52218;51.224;-2.328;2023-02-19T03:49:25;7.60;99.90
65074;DHT22;52218;51.224;-2.328;2023-02-19T03:57:23;7.50;99.90
65074;DHT22;52218;51.224;-2.328;2023-02-19T04:01:33;7.40;99.90
65074;DHT22;52218;51.224;-2.328;2023-02-19T04:05:25;7.40;99.90
65074;DHT22;52218;51.224;-2.328;2023-02-19T04:09:09;7.40;99.90
65074;DHT22;52218;51.224;-2.328;2023-02-19T04:13:00;7.40;99.90
65074;DHT22;52218;51.224;-2.328;2023-02-19T04:16:46;7.30;99.90
65074;DHT22;52218;51.224;-2.328;2023-02-19T04:20:35;7.30;99.90
65074;DHT22;52218;51.224;-2.328;2023-02-19T04:24:30;7.30;99.90
65074;DHT22;52218;51.224;-2.328;2023-02-19T04:28:16;7.20;99.90
65074;DHT22;52218;51.224;-2.328;2023-02-19T04:31:59;7.20;99.90
65074;DHT22;52218;51.224;-2.328;2023-02-19T04:35:41;7.20;99.90
65074;DHT22;52218;51.224;-2.328;2023-02-19T04:39:23;7.20;99.90
65074;DHT22;52218;51.224;-2.328;2023-02-19T04:43:05;7.20;99.90
65074;DHT22;52218;51.224;-2.328;2023-02-19T04:46:47;7.10;99.90
65074;DHT22;52218;51.224;-2.328;2023-02-19T04:50:29;7.10;99.90
65074;DHT22;52218;51.224;-2.328;2023-02-19T04:54:11;7.10;99.90
65074;DHT22;52218;51.224;-2.328;2023-02-19T04:57:54;7.10;99.90
65074;DHT22;52218;51.224;-2.328;2023-02-19T05:01:36;7.10;99.90
65074;DHT22;52218;51.224;-2.328;2023-02-19T05:05:18;7.10;99.90
65074;DHT22;52218;51.224;-2.328;2023-02-19T05:09:00;7.00;99.90
65074;DHT22;52218;51.224;-2.328;2023-02-19T05:12:42;7.00;99.90
65074;DHT22;52218;51.224;-2.328;2023-02-19T05:16:24;6.90;99.90
65074;DHT22;52218;51.224;-2.328;2023-02-19T05:20:07;6.90;99.90
65074;DHT22;52218;51.224;-2.328;2023-02-19T05:23:49;6.80;99.90
65074;DHT22;52218;51.224;-2.328;2023-02-19T05:27:31;6.80;99.90
65074;DHT22;52218;51.224;-2.328;2023-02-19T05:31:14;6.70;99.90
65074;DHT22;52218;51.224;-2.328;2023-02-19T05:34:56;6.70;99.90
65074;DHT22;52218;51.224;-2.328;2023-02-19T05:38:39;6.70;99.90
65074;DHT22;52218;51.224;-2.328;2023-02-19T05:42:22;6.60;99.90
65074;DHT22;52218;51.224;-2.328;2023-02-19T05:46:05;6.60;99.90
65074;DHT22;52218;51.224;-2.328;2023-02-19T05:49:47;6.50;99.90
65074;DHT22;52218;51.224;-2.328;2023-02-19T05:53:29;6.50;99.90
65074;DHT22;52218;51.224;-2.328;2023-02-19T05:57:12;6.40;99.90
65074;DHT22;52218;51.224;-2.328;2023-02-19T06:00:54;6.30;99.90
65074;DHT22;52218;51.224;-2.328;2023-02-19T06:04:39;6.30;99.90
65074;DHT22;52218;51.224;-2.328;2023-02-19T06:08:21;6.20;99.90
65074;DHT22;52218;51.224;-2.328;2023-02-19T06:12:04;6.10;99.90
65074;DHT22;52218;51.224;-2.328;2023-02-19T06:15:46;6.10;99.90
65074;DHT22;52218;51.224;-2.328;2023-02-19T06:19:28;6.10;99.90
65074;DHT22;52218;51.224;-2.328;2023-02-19T06:23:35;6.00;99.90
65074;DHT22;52218;51.224;-2.328;2023-02-19T06:27:18;6.00;99.90
65074;DHT22;52218;51.224;-2.328;2023-02-19T06:31:00;6.00;99.90
65074;DHT22;52218;51.224;-2.328;2023-02-19T06:34:43;6.00;99.90
65074;DHT22;52218;51.224;-2.328;2023-02-19T06:38:25;6.00;99.90
65074;DHT22;52218;51.224;-2.328;2023-02-19T06:42:07;6.00;99.90
65074;DHT22;52218;51.224;-2.328;2023-02-19T06:45:49;5.90;99.90
65074;DHT22;52218;51.224;-2.328;2023-02-19T06:49:31;5.90;99.90
65074;DHT22;52218;51.224;-2.328;2023-02-19T06:53:13;5.90;99.90
65074;DHT22;52218;51.224;-2.328;2023-02-19T06:56:55;5.90;99.90
65074;DHT22;52218;51.224;-2.328;2023-02-19T07:00:39;5.80;99.90
65074;DHT22;52218;51.224;-2.328;2023-02-19T07:04:21;5.80;99.90
65074;DHT22;52218;51.224;-2.328;2023-02-19T07:08:04;5.70;99.90
65074;DHT22;52218;51.224;-2.328;2023-02-19T07:11:46;5.70;99.90
65074;DHT22;52218;51.224;-2.328;2023-02-19T07:15:28;5.60;99.90
65074;DHT22;52218;51.224;-2.328;2023-02-19T07:19:10;5.60;99.90
65074;DHT22;52218;51.224;-2.328;2023-02-19T07:22:52;5.50;99.90
65074;DHT22;52218;51.224;-2.328;2023-02-19T07:26:35;5.40;99.90
65074;DHT22;52218;51.224;-2.328;2023-02-19T07:30:17;5.50;99.90
65074;DHT22;52218;51.224;-2.328;2023-02-19T07:33:59;5.50;99.90
65074;DHT22;52218;51.224;-2.328;2023-02-19T07:37:41;5.60;99.90
65074;DHT22;52218;51.224;-2.328;2023-02-19T07:41:24;5.70;99.90
65074;DHT22;52218;51.224;-2.328;2023-02-19T07:45:06;5.80;99.90
65074;DHT22;52218;51.224;-2.328;2023-02-19T07:48:48;5.90;99.90
65074;DHT22;52218;51.224;-2.328;2023-02-19T07:52:32;6.00;99.90
65074;DHT22;52218;51.224;-2.328;2023-02-19T07:56:15;6.20;99.90
65074;DHT22;52218;51.224;-2.328;2023-02-19T07:59:57;6.40;99.90
65074;DHT22;52218;51.224;-2.328;2023-02-19T08:03:40;6.50;99.90
65074;DHT22;52218;51.224;-2.328;2023-02-19T08:07:22;6.70;99.90
65074;DHT22;52218;51.224;-2.328;2023-02-19T08:11:05;6.80;99.90
65074;DHT22;52218;51.224;-2.328;2023-02-19T08:15:06;6.70;99.90
65074;DHT22;52218;51.224;-2.328;2023-02-19T08:18:48;6.80;99.90
65074;DHT22;52218;51.224;-2.328;2023-02-19T08:22:30;6.80;99.90
65074;DHT22;52218;51.224;-2.328;2023-02-19T08:26:12;6.80;99.90
65074;DHT22;52218;51.224;-2.328;2023-02-19T08:29:54;6.90;99.90
65074;DHT22;52218;51.224;-2.328;2023-02-19T08:33:37;7.00;99.90
65074;DHT22;52218;51.224;-2.328;2023-02-19T08:37:19;7.20;99.90
65074;DHT22;52218;51.224;-2.328;2023-02-19T08:41:09;7.50;99.90
65074;DHT22;52218;51.224;-2.328;2023-02-19T08:44:52;7.80;99.90
65074;DHT22;52218;51.224;-2.328;2023-02-19T08:48:35;8.00;99.90
65074;DHT22;52218;51.224;-2.328;2023-02-19T08:52:17;8.30;99.90
65074;DHT22;52218;51.224;-2.328;2023-02-19T08:56:07;8.40;99.90
65074;DHT22;52218;51.224;-2.328;2023-02-19T08:59:50;8.50;99.90
65074;DHT22;52218;51.224;-2.328;2023-02-19T09:03:32;8.60;99.90
65074;DHT22;52218;51.224;-2.328;2023-02-19T09:07:14;8.70;99.90
65074;DHT22;52218;51.224;-2.328;2023-02-19T09:11:01;8.90;99.90
65074;DHT22;52218;51.224;-2.328;2023-02-19T09:14:44;9.10;99.90
65074;DHT22;52218;51.224;-2.328;2023-02-19T09:18:26;9.20;99.90
65074;DHT22;52218;51.224;-2.328;2023-02-19T09:22:08;9.40;99.90
65074;DHT22;52218;51.224;-2.328;2023-02-19T09:25:59;9.50;99.90
65074;DHT22;52218;51.224;-2.328;2023-02-19T09:29:41;9.60;99.90
65074;DHT22;52218;51.224;-2.328;2023-02-19T09:33:23;9.70;99.90
65074;DHT22;52218;51.224;-2.328;2023-02-19T09:37:06;9.80;99.90
65074;DHT22;52218;51.224;-2.328;2023-02-19T09:40:48;10.00;99.90
65074;DHT22;52218;51.224;-2.328;2023-02-19T09:44:35;10.20;99.90
65074;DHT22;52218;51.224;-2.328;2023-02-19T09:48:18;10.30;99.90
65074;DHT22;52218;51.224;-2.328;2023-02-19T09:52:17;10.40;99.90
65074;DHT22;52218;51.224;-2.328;2023-02-19T09:56:00;10.50;99.90
65074;DHT22;52218;51.224;-2.328;2023-02-19T09:59:52;10.70;99.90
65074;DHT22;52218;51.224;-2.328;2023-02-19T10:03:40;10.80;99.90
65074;DHT22;52218;51.224;-2.328;2023-02-19T10:07:37;10.90;99.90
65074;DHT22;52218;51.224;-2.328;2023-02-19T10:11:21;10.90;99.90
65074;DHT22;52218;51.224;-2.328;2023-02-19T10:15:16;11.00;99.90
65074;DHT22;52218;51.224;-2.328;2023-02-19T10:18:59;11.10;99.90
65074;DHT22;52218;51.224;-2.328;2023-02-19T10:22:42;11.20;99.90
65074;DHT22;52218;51.224;-2.328;2023-02-19T10:26:24;11.40;99.90
65074;DHT22;52218;51.224;-2.328;2023-02-19T10:30:17;11.50;99.90
65074;DHT22;52218;51.224;-2.328;2023-02-19T10:34:00;11.50;99.90
65074;DHT22;52218;51.224;-2.328;2023-02-19T10:37:45;11.40;99.90
65074;DHT22;52218;51.224;-2.328;2023-02-19T10:41:28;11.40;99.90
65074;DHT22;52218;51.224;-2.328;2023-02-19T10:45:20;11.90;99.90
65074;DHT22;52218;51.224;-2.328;2023-02-19T10:49:06;13.00;99.90
65074;DHT22;52218;51.224;-2.328;2023-02-19T10:52:59;13.70;99.90
65074;DHT22;52218;51.224;-2.328;2023-02-19T10:56:42;14.00;99.90
65074;DHT22;52218;51.224;-2.328;2023-02-19T11:00:28;14.20;99.90
65074;DHT22;52218;51.224;-2.328;2023-02-19T11:04:16;15.30;99.90
65074;DHT22;52218;51.224;-2.328;2023-02-19T11:07:58;16.40;99.90
65074;DHT22;52218;51.224;-2.328;2023-02-19T11:11:40;17.30;99.90
65074;DHT22;52218;51.224;-2.328;2023-02-19T11:15:27;17.90;99.90
65074;DHT22;52218;51.224;-2.328;2023-02-19T11:19:37;18.30;99.90
65074;DHT22;52218;51.224;-2.328;2023-02-19T11:23:29;18.40;99.90
65074;DHT22;52218;51.224;-2.328;2023-02-19T11:27:18;18.60;99.90
65074;DHT22;52218;51.224;-2.328;2023-02-19T11:39:20;19.40;99.90
65074;DHT22;52218;51.224;-2.328;2023-02-19T11:59:47;20.70;99.90
65074;DHT22;52218;51.224;-2.328;2023-02-19T12:12:18;20.90;99.50
65074;DHT22;52218;51.224;-2.328;2023-02-19T12:20:17;21.10;95.90
65074;DHT22;52218;51.224;-2.328;2023-02-19T12:44:57;20.70;95.80
65074;DHT22;52218;51.224;-2.328;2023-02-19T12:48:47;21.00;96.30
65074;DHT22;52218;51.224;-2.328;2023-02-19T12:52:36;21.10;93.20
65074;DHT22;52218;51.224;-2.328;2023-02-19T12:56:27;21.00;95.40
65074;DHT22;52218;51.224;-2.328;2023-02-19T13:04:24;20.80;93.00
65074;DHT22;52218;51.224;-2.328;2023-02-19T13:12:26;20.50;94.40
65074;DHT22;52218;51.224;-2.328;2023-02-19T13:16:19;20.20;95.60
65074;DHT22;52218;51.224;-2.328;2023-02-19T13:20:34;19.80;95.40
65074;DHT22;52218;51.224;-2.328;2023-02-19T13:24:31;19.90;95.10
65074;DHT22;52218;51.224;-2.328;2023-02-19T13:36:15;19.90;93.90
65074;DHT22;52218;51.224;-2.328;2023-02-19T13:44:03;19.50;93.80
65074;DHT22;52218;51.224;-2.328;2023-02-19T13:51:46;19.60;93.60
65074;DHT22;52218;51.224;-2.328;2023-02-19T13:55:59;19.20;94.20
65074;DHT22;52218;51.224;-2.328;2023-02-19T13:59:41;18.80;95.90
65074;DHT22;52218;51.224;-2.328;2023-02-19T14:07:33;18.60;96.60
65074;DHT22;52218;51.224;-2.328;2023-02-19T14:11:17;18.50;96.70
65074;DHT22;52218;51.224;-2.328;2023-02-19T14:15:37;18.40;96.60
65074;DHT22;52218;51.224;-2.328;2023-02-19T14:23:24;18.70;96.50
65074;DHT22;52218;51.224;-2.328;2023-02-19T14:27:07;18.90;95.50
65074;DHT22;52218;51.224;-2.328;2023-02-19T14:34:58;18.80;95.60
65074;DHT22;52218;51.224;-2.328;2023-02-19T14:38:55;18.60;95.80
65074;DHT22;52218;51.224;-2.328;2023-02-19T14:42:39;18.40;96.30
65074;DHT22;52218;51.224;-2.328;2023-02-19T14:46:33;18.20;96.60
65074;DHT22;52218;51.224;-2.328;2023-02-19T14:50:27;17.80;97.50
65074;DHT22;52218;51.224;-2.328;2023-02-19T14:54:19;17.40;98.60
65074;DHT22;52218;51.224;-2.328;2023-02-19T14:58:10;16.50;99.90
65074;DHT22;52218;51.224;-2.328;2023-02-19T15:02:01;15.70;99.90
65074;DHT22;52218;51.224;-2.328;2023-02-19T15:06:04;15.00;99.90
65074;DHT22;52218;51.224;-2.328;2023-02-19T15:09:49;14.40;99.90
65074;DHT22;52218;51.224;-2.328;2023-02-19T15:13:32;14.00;99.90
65074;DHT22;52218;51.224;-2.328;2023-02-19T15:17:26;13.70;99.90
65074;DHT22;52218;51.224;-2.328;2023-02-19T15:21:22;13.40;99.90
65074;DHT22;52218;51.224;-2.328;2023-02-19T15:25:05;13.30;99.90
65074;DHT22;52218;51.224;-2.328;2023-02-19T15:28:56;13.10;99.90
65074;DHT22;52218;51.224;-2.328;2023-02-19T15:32:39;13.00;99.90
65074;DHT22;52218;51.224;-2.328;2023-02-19T15:36:25;12.80;99.90
65074;DHT22;52218;51.224;-2.328;2023-02-19T15:40:13;12.60;99.90
65074;DHT22;52218;51.224;-2.328;2023-02-19T15:51:54;12.30;99.90
65074;DHT22;52218;51.224;-2.328;2023-02-19T15:55:51;12.30;99.90
65074;DHT22;52218;51.224;-2.328;2023-02-19T15:59:47;12.30;99.90
65074;DHT22;52218;51.224;-2.328;2023-02-19T16:03:34;12.20;99.90
65074;DHT22;52218;51.224;-2.328;2023-02-19T16:15:19;11.70;99.90
65074;DHT22;52218;51.224;-2.328;2023-02-19T16:19:01;11.50;99.90
65074;DHT22;52218;51.224;-2.328;2023-02-19T16:22:43;11.40;99.90
65074;DHT22;52218;51.224;-2.328;2023-02-19T16:26:26;11.30;99.90
65074;DHT22;52218;51.224;-2.328;2023-02-19T16:30:27;11.30;99.90
65074;DHT22;52218;51.224;-2.328;2023-02-19T16:34:17;11.30;99.90
65074;DHT22;52218;51.224;-2.328;2023-02-19T16:37:59;11.30;99.90
65074;DHT22;52218;51.224;-2.328;2023-02-19T16:45:29;11.20;99.90
65074;DHT22;52218;51.224;-2.328;2023-02-19T16:49:11;11.10;99.90
65074;DHT22;52218;51.224;-2.328;2023-02-19T16:52:55;11.00;99.90
65074;DHT22;52218;51.224;-2.328;2023-02-19T16:56:37;10.80;99.90
65074;DHT22;52218;51.224;-2.328;2023-02-19T17:00:22;10.70;99.90
65074;DHT22;52218;51.224;-2.328;2023-02-19T17:04:10;10.50;99.90
65074;DHT22;52218;51.224;-2.328;2023-02-19T17:07:53;10.30;99.90
65074;DHT22;52218;51.224;-2.328;2023-02-19T17:11:35;10.20;99.90
65074;DHT22;52218;51.224;-2.328;2023-02-19T17:15:17;10.00;99.90
65074;DHT22;52218;51.224;-2.328;2023-02-19T17:18:59;9.90;99.90
65074;DHT22;52218;51.224;-2.328;2023-02-19T17:22:41;9.80;99.90
65074;DHT22;52218;51.224;-2.328;2023-02-19T17:26:26;9.70;99.90
65074;DHT22;52218;51.224;-2.328;2023-02-19T17:30:24;9.60;99.90
65074;DHT22;52218;51.224;-2.328;2023-02-19T17:34:07;9.50;99.90
65074;DHT22;52218;51.224;-2.328;2023-02-19T17:37:49;9.40;99.90
65074;DHT22;52218;51.224;-2.328;2023-02-19T17:41:34;9.30;99.90
65074;DHT22;52218;51.224;-2.328;2023-02-19T17:45:16;9.20;99.90
65074;DHT22;52218;51.224;-2.328;2023-02-19T17:48:58;9.10;99.90
65074;DHT22;52218;51.224;-2.328;2023-02-19T17:52:40;9.00;99.90
65074;DHT22;52218;51.224;-2.328;2023-02-19T17:56:25;8.80;99.90
65074;DHT22;52218;51.224;-2.328;2023-02-19T18:00:09;8.70;99.90
65074;DHT22;52218;51.224;-2.328;2023-02-19T18:03:51;8.60;99.90
65074;DHT22;52218;51.224;-2.328;2023-02-19T18:07:33;8.60;99.90
65074;DHT22;52218;51.224;-2.328;2023-02-19T18:11:17;8.50;99.90
65074;DHT22;52218;51.224;-2.328;2023-02-19T18:15:00;8.40;99.90
65074;DHT22;52218;51.224;-2.328;2023-02-19T18:18:43;8.30;99.90
65074;DHT22;52218;51.224;-2.328;2023-02-19T18:22:25;8.20;99.90
65074;DHT22;52218;51.224;-2.328;2023-02-19T18:26:10;8.10;99.90
65074;DHT22;52218;51.224;-2.328;2023-02-19T18:29:53;8.00;99.90
65074;DHT22;52218;51.224;-2.328;2023-02-19T18:33:36;7.90;99.90
65074;DHT22;52218;51.224;-2.328;2023-02-19T18:37:18;7.80;99.90
65074;DHT22;52218;51.224;-2.328;2023-02-19T18:41:00;7.70;99.90
65074;DHT22;52218;51.224;-2.328;2023-02-19T18:44:47;7.60;99.90
65074;DHT22;52218;51.224;-2.328;2023-02-19T18:48:29;7.50;99.90
65074;DHT22;52218;51.224;-2.328;2023-02-19T18:52:11;7.40;99.90
65074;DHT22;52218;51.224;-2.328;2023-02-19T18:55:53;7.40;99.90
65074;DHT22;52218;51.224;-2.328;2023-02-19T18:59:35;7.30;99.90
65074;DHT22;52218;51.224;-2.328;2023-02-19T19:03:17;7.20;99.90
65074;DHT22;52218;51.224;-2.328;2023-02-19T19:06:59;7.20;99.90
65074;DHT22;52218;51.224;-2.328;2023-02-19T19:10:41;7.20;99.90
65074;DHT22;52218;51.224;-2.328;2023-02-19T19:14:24;7.20;99.90
65074;DHT22;52218;51.224;-2.328;2023-02-19T19:18:07;7.10;99.90
65074;DHT22;52218;51.224;-2.328;2023-02-19T19:21:53;7.10;99.90
65074;DHT22;52218;51.224;-2.328;2023-02-19T19:25:36;7.10;99.90
65074;DHT22;52218;51.224;-2.328;2023-02-19T19:29:19;7.10;99.90
65074;DHT22;52218;51.224;-2.328;2023-02-19T19:33:02;7.10;99.90
65074;DHT22;52218;51.224;-2.328;2023-02-19T19:36:45;7.00;99.90
65074;DHT22;52218;51.224;-2.328;2023-02-19T19:40:27;7.00;99.90
65074;DHT22;52218;51.224;-2.328;2023-02-19T19:44:09;7.00;99.90
65074;DHT22;52218;51.224;-2.328;2023-02-19T19:47:51;7.00;99.90
65074;DHT22;52218;51.224;-2.328;2023-02-19T19:51:34;7.00;99.90
65074;DHT22;52218;51.224;-2.328;2023-02-19T19:55:16;7.10;99.90
65074;DHT22;52218;51.224;-2.328;2023-02-19T19:58:58;7.00;99.90
65074;DHT22;52218;51.224;-2.328;2023-02-19T20:02:40;7.00;99.90
65074;DHT22;52218;51.224;-2.328;2023-02-19T20:06:26;7.00;99.90
65074;DHT22;52218;51.224;-2.328;2023-02-19T20:10:09;6.90;99.90
65074;DHT22;52218;51.224;-2.328;2023-02-19T20:13:53;6.90;99.90
65074;DHT22;52218;51.224;-2.328;2023-02-19T20:17:36;6.90;99.90
65074;DHT22;52218;51.224;-2.328;2023-02-19T20:21:18;7.00;99.90
65074;DHT22;52218;51.224;-2.328;2023-02-19T20:25:00;7.10;99.90
65074;DHT22;52218;51.224;-2.328;2023-02-19T20:28:42;7.10;99.90
65074;DHT22;52218;51.224;-2.328;2023-02-19T20:32:27;7.10;99.90
65074;DHT22;52218;51.224;-2.328;2023-02-19T20:36:09;7.10;99.90
65074;DHT22;52218;51.224;-2.328;2023-02-19T20:39:52;7.20;99.90
65074;DHT22;52218;51.224;-2.328;2023-02-19T20:43:35;7.30;99.90
65074;DHT22;52218;51.224;-2.328;2023-02-19T20:47:19;7.40;99.90
65074;DHT22;52218;51.224;-2.328;2023-02-19T20:51:02;7.40;99.90
65074;DHT22;52218;51.224;-2.328;2023-02-19T20:54:45;7.60;99.90
65074;DHT22;52218;51.224;-2.328;2023-02-19T20:58:27;7.60;99.90
65074;DHT22;52218;51.224;-2.328;2023-02-19T21:02:18;7.70;99.90
65074;DHT22;52218;51.224;-2.328;2023-02-19T21:06:00;7.80;99.90
65074;DHT22;52218;51.224;-2.328;2023-02-19T21:09:43;7.90;99.90
65074;DHT22;52218;51.224;-2.328;2023-02-19T21:13:25;8.00;99.90
65074;DHT22;52218;51.224;-2.328;2023-02-19T21:17:11;8.00;99.90
65074;DHT22;52218;51.224;-2.328;2023-02-19T21:20:53;8.10;99.90
65074;DHT22;52218;51.224;-2.328;2023-02-19T21:24:35;8.20;99.90
65074;DHT22;52218;51.224;-2.328;2023-02-19T21:28:17;8.30;99.90
65074;DHT22;52218;51.224;-2.328;2023-02-19T21:32:00;8.30;99.90
65074;DHT22;52218;51.224;-2.328;2023-02-19T21:35:42;8.30;99.90
65074;DHT22;52218;51.224;-2.328;2023-02-19T21:39:26;8.40;99.90
65074;DHT22;52218;51.224;-2.328;2023-02-19T21:43:08;8.40;99.90
65074;DHT22;52218;51.224;-2.328;2023-02-19T21:46:50;8.50;99.90
65074;DHT22;52218;51.224;-2.328;2023-02-19T21:50:32;8.50;99.90
65074;DHT22;52218;51.224;-2.328;2023-02-19T21:54:17;8.50;99.90
65074;DHT22;52218;51.224;-2.328;2023-02-19T21:57:59;8.50;99.90
65074;DHT22;52218;51.224;-2.328;2023-02-19T22:01:41;8.50;99.90
65074;DHT22;52218;51.224;-2.328;2023-02-19T22:05:24;8.50;99.90
65074;DHT22;52218;51.224;-2.328;2023-02-19T22:09:07;8.50;99.90
65074;DHT22;52218;51.224;-2.328;2023-02-19T22:12:51;8.60;99.90
65074;DHT22;52218;51.224;-2.328;2023-02-19T22:16:33;8.60;99.90
65074;DHT22;52218;51.224;-2.328;2023-02-19T22:20:16;8.60;99.90
65074;DHT22;52218;51.224;-2.328;2023-02-19T22:24:01;8.50;99.90
65074;DHT22;52218;51.224;-2.328;2023-02-19T22:27:43;8.50;99.90
65074;DHT22;52218;51.224;-2.328;2023-02-19T22:31:26;8.50;99.90
65074;DHT22;52218;51.224;-2.328;2023-02-19T22:35:09;8.50;99.90
65074;DHT22;52218;51.224;-2.328;2023-02-19T22:38:51;8.50;99.90
65074;DHT22;52218;51.224;-2.328;2023-02-19T22:42:33;8.50;99.90
65074;DHT22;52218;51.224;-2.328;2023-02-19T22:46:20;8.50;99.90
65074;DHT22;52218;51.224;-2.328;2023-02-19T22:50:03;8.50;99.90
65074;DHT22;52218;51.224;-2.328;2023-02-19T22:53:50;8.50;99.90
65074;DHT22;52218;51.224;-2.328;2023-02-19T22:57:32;8.50;99.90
65074;DHT22;52218;51.224;-2.328;2023-02-19T23:01:14;8.50;99.90
65074;DHT22;52218;51.224;-2.328;2023-02-19T23:04:56;8.50;99.90
65074;DHT22;52218;51.224;-2.328;2023-02-19T23:08:40;8.50;99.90
65074;DHT22;52218;51.224;-2.328;2023-02-19T23:12:23;8.50;99.90
65074;DHT22;52218;51.224;-2.328;2023-02-19T23:16:05;8.50;99.90
65074;DHT22;52218;51.224;-2.328;2023-02-19T23:19:47;8.50;99.90
65074;DHT22;52218;51.224;-2.328;2023-02-19T23:23:29;8.50;99.90
65074;DHT22;52218;51.224;-2.328;2023-02-19T23:27:11;8.50;99.90
65074;DHT22;52218;51.224;-2.328;2023-02-19T23:30:53;8.50;99.90
65074;DHT22;52218;51.224;-2.328;2023-02-19T23:34:35;8.50;99.90
65074;DHT22;52218;51.224;-2.328;2023-02-19T23:38:17;8.50;99.90
65074;DHT22;52218;51.224;-2.328;2023-02-19T23:42:00;8.50;99.90
65074;DHT22;52218;51.224;-2.328;2023-02-19T23:45:42;8.50;99.90
65074;DHT22;52218;51.224;-2.328;2023-02-19T23:49:24;8.50;99.90
65074;DHT22;52218;51.224;-2.328;2023-02-19T23:53:06;8.50;99.90
65074;DHT22;52218;51.224;-2.328;2023-02-19T23:56:48;8.50;99.90
